To NAV CANADA Home Page Login to a new session Search on AWWS site Feedback and Comments Disclaimer Vers la page française équivalente Tips FAQ What's new on the site To the Forecasts and Observations / NOTAM section To "File a Flight Plan" website Publications and other links Update of the User's profile FIC Telephone Numbers My Weather Data Folder Route Weather Data Regional Weather Data Local Weather Data To the Forecasts and Observations / NOTAM section
Request Generated 04/17/2014 at 21:30:53 UTC . Weather information available at that time is displayed.

METAR/TAF

DEASE LAKE/BC    (show WxCam)

METAR CYDL 172100Z AUTO 18006G15KT 140V220 9SM OVC055 08/M03 A2938
RMK SLP963 DENSITY ALT 3000FT=
METAR CYDL 172000Z AUTO 10007KT 080V240 9SM OVC055 07/M03 A2938 RMK
SLP961 DENSITY ALT 2900FT=
METAR CYDL 171900Z AUTO 10007G17KT 060V160 9SM BKN055 BKN076 OVC140
07/M04 A2938 RMK SLP961 DENSITY ALT 2900FT=

TAF CYDL 171738Z 1718/1802 02008KT P6SM SCT030 OVC070 TEMPO 1718/1802
P6SM -SHRA BKN030
RMK FCST BASED ON AUTO OBS. NXT FCST BY 180000Z=
Your time UTC time
Weather data provided by Environment Canada and NAV CANADA